sensor_id;sensor_type;location;lat;lon;timestamp;pressure;altitude;pressure_sealevel;temperature;humidity
35878;BME280;21982;49.804;24.072;2023-01-26T00:01:27;98040.41;;;0.76;70.47
35878;BME280;21982;49.804;24.072;2023-01-26T00:03:55;97934.06;;;0.08;70.16
35878;BME280;21982;49.804;24.072;2023-01-26T00:06:21;97988.09;;;0.30;70.15
35878;BME280;21982;49.804;24.072;2023-01-26T00:08:49;97846.63;;;-0.44;70.26
35878;BME280;21982;49.804;24.072;2023-01-26T00:11:17;98033.34;;;0.65;70.22
35878;BME280;21982;49.804;24.072;2023-01-26T00:13:43;97975.09;;;0.17;70.34
35878;BME280;21982;49.804;24.072;2023-01-26T00:16:13;98004.41;;;0.45;70.03
35878;BME280;21982;49.804;24.072;2023-01-26T00:18:40;98024.53;;;0.55;69.74
35878;BME280;21982;49.804;24.072;2023-01-26T00:21:07;97944.00;;;-0.10;70.09
35878;BME280;21982;49.804;24.072;2023-01-26T00:23:33;98035.16;;;0.52;70.27
35878;BME280;21982;49.804;24.072;2023-01-26T00:25:59;97955.31;;;0.15;70.23
35878;BME280;21982;49.804;24.072;2023-01-26T00:28:26;98020.81;;;0.71;69.86
35878;BME280;21982;49.804;24.072;2023-01-26T00:30:51;97876.53;;;-0.13;69.30
35878;BME280;21982;49.804;24.072;2023-01-26T00:33:17;97900.16;;;-0.03;69.43
35878;BME280;21982;49.804;24.072;2023-01-26T00:35:42;98022.94;;;0.65;68.94
35878;BME280;21982;49.804;24.072;2023-01-26T00:38:10;98026.69;;;0.61;68.70
35878;BME280;21982;49.804;24.072;2023-01-26T00:40:36;97976.44;;;0.23;69.36
35878;BME280;21982;49.804;24.072;2023-01-26T00:43:02;97940.72;;;0.12;69.21
35878;BME280;21982;49.804;24.072;2023-01-26T00:45:27;98018.16;;;0.59;69.18
35878;BME280;21982;49.804;24.072;2023-01-26T00:47:52;97910.78;;;-0.06;68.76
35878;BME280;21982;49.804;24.072;2023-01-26T00:50:17;97783.63;;;-0.85;68.39
35878;BME280;21982;49.804;24.072;2023-01-26T00:52:43;97858.59;;;-0.41;68.86
35878;BME280;21982;49.804;24.072;2023-01-26T00:55:08;97905.97;;;0.00;68.38
35878;BME280;21982;49.804;24.072;2023-01-26T00:57:34;98005.22;;;0.58;68.40
35878;BME280;21982;49.804;24.072;2023-01-26T00:59:59;97981.41;;;0.39;68.12
35878;BME280;21982;49.804;24.072;2023-01-26T01:02:24;97720.56;;;-1.25;68.33
35878;BME280;21982;49.804;24.072;2023-01-26T01:04:53;98023.06;;;0.51;68.44
35878;BME280;21982;49.804;24.072;2023-01-26T01:07:18;97910.69;;;-0.17;68.33
35878;BME280;21982;49.804;24.072;2023-01-26T01:09:44;98007.81;;;0.34;68.05
35878;BME280;21982;49.804;24.072;2023-01-26T01:12:10;97990.09;;;0.14;68.51
35878;BME280;21982;49.804;24.072;2023-01-26T01:14:36;97902.72;;;-0.40;68.56
35878;BME280;21982;49.804;24.072;2023-01-26T01:17:01;97899.50;;;-0.43;68.38
35878;BME280;21982;49.804;24.072;2023-01-26T01:19:27;97994.16;;;0.18;68.68
35878;BME280;21982;49.804;24.072;2023-01-26T01:21:52;97955.44;;;0.00;68.71
35878;BME280;21982;49.804;24.072;2023-01-26T01:24:18;97877.19;;;-0.35;68.40
35878;BME280;21982;49.804;24.072;2023-01-26T01:26:43;97922.03;;;-0.06;68.21
35878;BME280;21982;49.804;24.072;2023-01-26T01:29:12;98002.31;;;0.62;67.96
35878;BME280;21982;49.804;24.072;2023-01-26T01:31:37;97926.53;;;0.29;68.21
35878;BME280;21982;49.804;24.072;2023-01-26T01:34:03;97847.09;;;-0.26;67.67
35878;BME280;21982;49.804;24.072;2023-01-26T01:36:28;97991.56;;;0.67;68.24
35878;BME280;21982;49.804;24.072;2023-01-26T01:38:55;97899.91;;;0.13;67.90
35878;BME280;21982;49.804;24.072;2023-01-26T01:41:21;97783.56;;;-0.47;67.98
35878;BME280;21982;49.804;24.072;2023-01-26T01:43:50;97931.34;;;0.46;67.99
35878;BME280;21982;49.804;24.072;2023-01-26T01:49:02;97860.66;;;0.03;67.09
35878;BME280;21982;49.804;24.072;2023-01-26T01:51:37;97758.00;;;-0.66;68.02
35878;BME280;21982;49.804;24.072;2023-01-26T01:54:12;97890.41;;;0.12;67.77
35878;BME280;21982;49.804;24.072;2023-01-26T01:56:42;97929.41;;;0.37;67.91
35878;BME280;21982;49.804;24.072;2023-01-26T01:59:11;97925.50;;;0.31;68.28
35878;BME280;21982;49.804;24.072;2023-01-26T02:01:37;97927.19;;;0.20;68.17
35878;BME280;21982;49.804;24.072;2023-01-26T02:04:04;97949.09;;;0.41;68.06
35878;BME280;21982;49.804;24.072;2023-01-26T02:06:50;97949.91;;;0.42;67.90
35878;BME280;21982;49.804;24.072;2023-01-26T02:09:17;97943.38;;;0.36;67.95
35878;BME280;21982;49.804;24.072;2023-01-26T02:12:05;97927.69;;;0.25;68.07
35878;BME280;21982;49.804;24.072;2023-01-26T02:14:32;97957.69;;;0.30;67.80
35878;BME280;21982;49.804;24.072;2023-01-26T02:16:57;97922.09;;;0.06;67.80
35878;BME280;21982;49.804;24.072;2023-01-26T02:24:54;97856.50;;;-0.36;68.14
35878;BME280;21982;49.804;24.072;2023-01-26T02:27:23;97935.53;;;0.12;68.46
35878;BME280;21982;49.804;24.072;2023-01-26T02:29:49;97884.78;;;-0.19;68.29
35878;BME280;21982;49.804;24.072;2023-01-26T02:32:14;97892.69;;;-0.20;68.59
35878;BME280;21982;49.804;24.072;2023-01-26T02:34:40;97823.22;;;-0.56;68.11
35878;BME280;21982;49.804;24.072;2023-01-26T02:37:13;97870.63;;;-0.27;67.87
35878;BME280;21982;49.804;24.072;2023-01-26T02:40:04;97923.00;;;0.17;68.04
35878;BME280;21982;49.804;24.072;2023-01-26T02:42:32;97929.81;;;0.07;68.26
35878;BME280;21982;49.804;24.072;2023-01-26T02:45:04;97891.94;;;-0.10;67.99
35878;BME280;21982;49.804;24.072;2023-01-26T02:47:30;97890.06;;;-0.08;68.62
35878;BME280;21982;49.804;24.072;2023-01-26T02:49:55;97407.41;;;-3.15;67.81
35878;BME280;21982;49.804;24.072;2023-01-26T02:52:25;97838.47;;;-0.26;68.15
35878;BME280;21982;49.804;24.072;2023-01-26T02:54:51;97896.28;;;0.03;68.25
35878;BME280;21982;49.804;24.072;2023-01-26T02:57:36;97904.50;;;0.09;67.91
35878;BME280;21982;49.804;24.072;2023-01-26T03:00:07;97903.44;;;0.12;68.28
35878;BME280;21982;49.804;24.072;2023-01-26T03:02:33;97894.59;;;0.02;68.31
35878;BME280;21982;49.804;24.072;2023-01-26T03:04:59;97834.81;;;-0.24;68.50
35878;BME280;21982;49.804;24.072;2023-01-26T03:07:24;97898.03;;;0.15;68.61
35878;BME280;21982;49.804;24.072;2023-01-26T03:09:49;97909.06;;;0.18;67.97
35878;BME280;21982;49.804;24.072;2023-01-26T03:12:15;97872.19;;;0.12;68.48
35878;BME280;21982;49.804;24.072;2023-01-26T07:12:44;97745.59;;;-2.29;72.87
35878;BME280;21982;49.804;24.072;2023-01-26T07:15:11;97839.34;;;-1.40;73.38
35878;BME280;21982;49.804;24.072;2023-01-26T07:17:38;97820.31;;;-1.03;73.08
35878;BME280;21982;49.804;24.072;2023-01-26T07:20:05;97684.00;;;-1.48;73.06
35878;BME280;21982;49.804;24.072;2023-01-26T07:22:46;97831.44;;;-0.37;72.65
35878;BME280;21982;49.804;24.072;2023-01-26T07:25:12;97825.63;;;-0.17;72.58
35878;BME280;21982;49.804;24.072;2023-01-26T07:27:39;97738.50;;;-0.48;72.41
35878;BME280;21982;49.804;24.072;2023-01-26T07:30:05;97733.72;;;-0.41;72.03
35878;BME280;21982;49.804;24.072;2023-01-26T07:32:31;97818.25;;;0.14;71.69
35878;BME280;21982;49.804;24.072;2023-01-26T07:34:56;97762.19;;;-0.03;71.84
35878;BME280;21982;49.804;24.072;2023-01-26T07:37:21;97748.34;;;-0.04;71.42
35878;BME280;21982;49.804;24.072;2023-01-26T07:39:47;97815.78;;;0.47;71.58
35878;BME280;21982;49.804;24.072;2023-01-26T07:42:13;97811.34;;;0.60;71.16
35878;BME280;21982;49.804;24.072;2023-01-26T07:44:38;97754.13;;;0.24;70.79
35878;BME280;21982;49.804;24.072;2023-01-26T07:47:06;97771.66;;;0.22;70.78
35878;BME280;21982;49.804;24.072;2023-01-26T07:49:33;97685.75;;;-0.26;71.49
35878;BME280;21982;49.804;24.072;2023-01-26T07:51:58;97679.34;;;-0.33;71.03
35878;BME280;21982;49.804;24.072;2023-01-26T07:54:26;97684.03;;;-0.14;70.70
35878;BME280;21982;49.804;24.072;2023-01-26T07:56:55;97820.03;;;0.83;70.84
35878;BME280;21982;49.804;24.072;2023-01-26T07:59:22;97763.81;;;0.57;70.64
35878;BME280;21982;49.804;24.072;2023-01-26T08:01:49;97827.28;;;0.91;70.22
35878;BME280;21982;49.804;24.072;2023-01-26T08:04:17;97815.94;;;1.03;70.06
35878;BME280;21982;49.804;24.072;2023-01-26T08:06:45;97767.91;;;0.83;70.54
35878;BME280;21982;49.804;24.072;2023-01-26T08:09:10;97754.25;;;0.69;69.49
35878;BME280;21982;49.804;24.072;2023-01-26T08:11:36;97733.53;;;0.67;69.82
35878;BME280;21982;49.804;24.072;2023-01-26T08:14:03;97803.13;;;1.11;70.07
35878;BME280;21982;49.804;24.072;2023-01-26T08:16:29;97719.38;;;0.47;70.05
35878;BME280;21982;49.804;24.072;2023-01-26T08:18:54;97776.56;;;0.95;69.52
35878;BME280;21982;49.804;24.072;2023-01-26T08:21:22;97687.84;;;0.28;69.54
35878;BME280;21982;49.804;24.072;2023-01-26T08:23:49;97800.03;;;1.06;69.80
35878;BME280;21982;49.804;24.072;2023-01-26T08:26:18;97802.19;;;1.12;69.62
35878;BME280;21982;49.804;24.072;2023-01-26T08:28:44;97798.63;;;1.13;69.38
35878;BME280;21982;49.804;24.072;2023-01-26T08:31:16;97801.50;;;1.21;69.30
35878;BME280;21982;49.804;24.072;2023-01-26T08:33:47;97787.25;;;1.25;69.34
35878;BME280;21982;49.804;24.072;2023-01-26T08:36:21;97764.84;;;1.12;68.78
35878;BME280;21982;49.804;24.072;2023-01-26T08:38:46;97733.19;;;0.83;68.92
35878;BME280;21982;49.804;24.072;2023-01-26T08:41:12;97799.72;;;1.33;69.40
35878;BME280;21982;49.804;24.072;2023-01-26T08:43:37;97792.25;;;1.28;69.18
35878;BME280;21982;49.804;24.072;2023-01-26T08:46:06;97772.78;;;1.10;68.93
35878;BME280;21982;49.804;24.072;2023-01-26T08:48:31;97800.56;;;1.33;68.55
35878;BME280;21982;49.804;24.072;2023-01-26T08:50:59;97766.16;;;1.17;68.83
35878;BME280;21982;49.804;24.072;2023-01-26T08:53:25;97788.44;;;1.44;69.00
35878;BME280;21982;49.804;24.072;2023-01-26T08:55:53;97794.38;;;1.57;68.68
35878;BME280;21982;49.804;24.072;2023-01-26T08:58:26;97791.63;;;1.70;67.47
35878;BME280;21982;49.804;24.072;2023-01-26T09:00:51;97734.84;;;1.28;68.17
35878;BME280;21982;49.804;24.072;2023-01-26T09:03:16;97786.78;;;1.65;68.29
35878;BME280;21982;49.804;24.072;2023-01-26T09:05:42;97768.75;;;1.62;67.66
35878;BME280;21982;49.804;24.072;2023-01-26T09:08:08;97759.00;;;1.64;67.30
35878;BME280;21982;49.804;24.072;2023-01-26T09:10:36;97776.69;;;1.72;67.29
35878;BME280;21982;49.804;24.072;2023-01-26T09:13:01;97773.72;;;1.65;67.77
35878;BME280;21982;49.804;24.072;2023-01-26T09:15:27;97697.28;;;1.20;67.88
35878;BME280;21982;49.804;24.072;2023-01-26T09:17:52;97726.28;;;1.49;67.16
35878;BME280;21982;49.804;24.072;2023-01-26T09:20:18;97767.63;;;1.76;67.14
35878;BME280;21982;49.804;24.072;2023-01-26T09:22:45;97714.53;;;1.54;67.38
35878;BME280;21982;49.804;24.072;2023-01-26T09:25:10;97686.91;;;1.41;66.87
35878;BME280;21982;49.804;24.072;2023-01-26T09:27:36;97763.94;;;1.89;67.47
35878;BME280;21982;49.804;24.072;2023-01-26T09:30:05;97692.34;;;1.60;66.83
35878;BME280;21982;49.804;24.072;2023-01-26T09:32:31;97647.91;;;1.39;66.55
35878;BME280;21982;49.804;24.072;2023-01-26T09:34:59;97718.13;;;1.85;66.93
35878;BME280;21982;49.804;24.072;2023-01-26T09:37:25;97694.09;;;1.71;67.22
35878;BME280;21982;49.804;24.072;2023-01-26T09:39:50;97625.63;;;1.35;66.86
35878;BME280;21982;49.804;24.072;2023-01-26T09:42:35;97671.47;;;1.92;66.54
35878;BME280;21982;49.804;24.072;2023-01-26T09:50:09;97733.97;;;2.57;65.61
35878;BME280;21982;49.804;24.072;2023-01-26T09:52:49;97727.28;;;2.64;65.42
35878;BME280;21982;49.804;24.072;2023-01-26T09:55:19;97579.13;;;1.72;65.23
35878;BME280;21982;49.804;24.072;2023-01-26T10:00:26;97720.25;;;2.44;65.83
35878;BME280;21982;49.804;24.072;2023-01-26T10:03:04;97733.97;;;2.37;66.09
35878;BME280;21982;49.804;24.072;2023-01-26T10:08:20;97590.31;;;1.63;66.09
35878;BME280;21982;49.804;24.072;2023-01-26T10:11:00;97699.88;;;2.38;65.46
35878;BME280;21982;49.804;24.072;2023-01-26T10:13:28;97717.63;;;2.44;65.19
35878;BME280;21982;49.804;24.072;2023-01-26T10:15:59;97627.19;;;1.90;65.03
35878;BME280;21982;49.804;24.072;2023-01-26T10:18:33;97709.09;;;2.42;64.63
35878;BME280;21982;49.804;24.072;2023-01-26T10:21:01;97705.47;;;2.33;64.69
35878;BME280;21982;49.804;24.072;2023-01-26T10:23:30;97615.69;;;1.61;65.34
35878;BME280;21982;49.804;24.072;2023-01-26T10:26:18;97700.03;;;2.05;65.04
35878;BME280;21982;49.804;24.072;2023-01-26T10:28:45;97698.53;;;2.12;65.42
35878;BME280;21982;49.804;24.072;2023-01-26T10:31:20;97702.06;;;2.22;64.71
35878;BME280;21982;49.804;24.072;2023-01-26T10:36:32;97698.38;;;2.24;65.27
35878;BME280;21982;49.804;24.072;2023-01-26T10:39:08;97618.41;;;1.91;64.99
35878;BME280;21982;49.804;24.072;2023-01-26T10:41:34;97630.88;;;2.09;65.07
35878;BME280;21982;49.804;24.072;2023-01-26T10:46:36;97687.91;;;2.66;64.73
35878;BME280;21982;49.804;24.072;2023-01-26T10:51:35;97674.09;;;2.33;64.49
35878;BME280;21982;49.804;24.072;2023-01-26T10:54:29;97669.25;;;2.29;64.34
35878;BME280;21982;49.804;24.072;2023-01-26T10:59:37;97662.44;;;2.38;63.98
35878;BME280;21982;49.804;24.072;2023-01-26T11:04:35;97592.59;;;1.77;64.78
35878;BME280;21982;49.804;24.072;2023-01-26T19:09:58;97524.59;;;0.28;74.29
35878;BME280;21982;49.804;24.072;2023-01-26T19:12:23;97527.78;;;0.21;74.64
35878;BME280;21982;49.804;24.072;2023-01-26T19:14:49;97467.91;;;-0.13;74.75
35878;BME280;21982;49.804;24.072;2023-01-26T19:17:14;97489.19;;;0.04;74.62
35878;BME280;21982;49.804;24.072;2023-01-26T19:19:39;97517.13;;;0.24;74.48
35878;BME280;21982;49.804;24.072;2023-01-26T19:22:06;97483.28;;;0.02;74.54
35878;BME280;21982;49.804;24.072;2023-01-26T19:24:31;97522.13;;;0.27;74.20
35878;BME280;21982;49.804;24.072;2023-01-26T19:26:56;97398.09;;;-0.52;74.02
35878;BME280;21982;49.804;24.072;2023-01-26T19:29:23;97517.97;;;0.24;74.28
35878;BME280;21982;49.804;24.072;2023-01-26T19:31:49;97296.44;;;-1.05;74.20
35878;BME280;21982;49.804;24.072;2023-01-26T19:34:14;97468.38;;;0.04;74.08
35878;BME280;21982;49.804;24.072;2023-01-26T19:36:41;97343.59;;;-0.76;73.48
35878;BME280;21982;49.804;24.072;2023-01-26T19:39:07;97456.78;;;-0.04;73.46
35878;BME280;21982;49.804;24.072;2023-01-26T19:41:33;97493.94;;;0.32;74.00
35878;BME280;21982;49.804;24.072;2023-01-26T19:43:58;97455.81;;;0.09;73.46
35878;BME280;21982;49.804;24.072;2023-01-26T19:46:25;97376.84;;;-0.35;73.24
35878;BME280;21982;49.804;24.072;2023-01-26T19:48:50;97480.44;;;0.27;73.63
35878;BME280;21982;49.804;24.072;2023-01-26T19:51:20;97448.13;;;0.07;73.61
35878;BME280;21982;49.804;24.072;2023-01-26T19:53:48;97337.56;;;-0.54;73.06
35878;BME280;21982;49.804;24.072;2023-01-26T19:56:18;97482.81;;;0.19;73.30
35878;BME280;21982;49.804;24.072;2023-01-26T19:58:49;97503.25;;;0.46;73.52
35878;BME280;21982;49.804;24.072;2023-01-26T20:04:34;97503.13;;;0.47;73.69
35878;BME280;21982;49.804;24.072;2023-01-26T20:06:59;97396.44;;;-0.09;73.39
35878;BME280;21982;49.804;24.072;2023-01-26T20:09:39;97491.53;;;0.62;72.92
35878;BME280;21982;49.804;24.072;2023-01-26T20:12:05;97258.41;;;-0.73;73.15
35878;BME280;21982;49.804;24.072;2023-01-26T20:14:31;97483.91;;;0.71;73.35
35878;BME280;21982;49.804;24.072;2023-01-26T20:17:00;97392.84;;;0.15;73.03
35878;BME280;21982;49.804;24.072;2023-01-26T20:19:26;97486.38;;;0.72;73.17
35878;BME280;21982;49.804;24.072;2023-01-26T20:21:52;97405.88;;;0.26;72.75
35878;BME280;21982;49.804;24.072;2023-01-26T20:24:18;97379.38;;;0.10;72.77
35878;BME280;21982;49.804;24.072;2023-01-26T20:26:44;97430.69;;;0.41;72.62
35878;BME280;21982;49.804;24.072;2023-01-26T20:29:12;97424.06;;;0.37;72.53
35878;BME280;21982;49.804;24.072;2023-01-26T20:31:38;97453.16;;;0.64;72.45
35878;BME280;21982;49.804;24.072;2023-01-26T20:34:03;97406.47;;;0.29;72.84
35878;BME280;21982;49.804;24.072;2023-01-26T20:36:29;97485.91;;;0.78;72.39
35878;BME280;21982;49.804;24.072;2023-01-26T20:38:55;97419.78;;;0.36;72.60
35878;BME280;21982;49.804;24.072;2023-01-26T20:41:23;97467.59;;;0.69;72.68
35878;BME280;21982;49.804;24.072;2023-01-26T20:43:50;97375.16;;;-0.03;72.57
35878;BME280;21982;49.804;24.072;2023-01-26T20:46:15;97490.53;;;0.75;72.96
35878;BME280;21982;49.804;24.072;2023-01-26T20:48:43;97460.28;;;0.51;72.81
35878;BME280;21982;49.804;24.072;2023-01-26T20:51:14;97249.16;;;-0.65;72.48
35878;BME280;21982;49.804;24.072;2023-01-26T20:53:43;97287.56;;;-0.36;71.96
35878;BME280;21982;49.804;24.072;2023-01-26T20:56:09;97475.84;;;0.74;72.65
35878;BME280;21982;49.804;24.072;2023-01-26T20:58:36;97262.50;;;-0.59;72.17
35878;BME280;21982;49.804;24.072;2023-01-26T21:01:10;97491.13;;;0.78;72.18
35878;BME280;21982;49.804;24.072;2023-01-26T21:03:36;97486.84;;;0.77;72.38
35878;BME280;21982;49.804;24.072;2023-01-26T21:06:03;97411.31;;;0.34;72.36
35878;BME280;21982;49.804;24.072;2023-01-26T21:08:29;97433.28;;;0.41;72.64
35878;BME280;21982;49.804;24.072;2023-01-26T21:10:55;97449.59;;;0.65;72.65
35878;BME280;21982;49.804;24.072;2023-01-26T21:13:20;97448.75;;;0.65;72.39
35878;BME280;21982;49.804;24.072;2023-01-26T21:15:48;97497.34;;;0.98;71.76
35878;BME280;21982;49.804;24.072;2023-01-26T21:18:16;97492.00;;;0.99;71.95
35878;BME280;21982;49.804;24.072;2023-01-26T21:20:55;97492.44;;;1.05;71.50
35878;BME280;21982;49.804;24.072;2023-01-26T21:23:21;97428.50;;;0.69;71.80
35878;BME280;21982;49.804;24.072;2023-01-26T21:25:47;97495.63;;;1.08;71.56
35878;BME280;21982;49.804;24.072;2023-01-26T21:28:12;97488.34;;;1.02;71.89
35878;BME280;21982;49.804;24.072;2023-01-26T21:30:37;97116.66;;;-1.32;72.00
35878;BME280;21982;49.804;24.072;2023-01-26T21:33:03;97489.66;;;0.96;71.57
35878;BME280;21982;49.804;24.072;2023-01-26T21:35:28;97452.31;;;0.64;71.57
35878;BME280;21982;49.804;24.072;2023-01-26T21:37:57;97493.56;;;0.91;71.84
35878;BME280;21982;49.804;24.072;2023-01-26T21:40:23;97408.44;;;0.37;71.45
35878;BME280;21982;49.804;24.072;2023-01-26T21:42:49;97425.69;;;0.49;71.65
35878;BME280;21982;49.804;24.072;2023-01-26T21:45:14;97347.72;;;-0.07;71.58
35878;BME280;21982;49.804;24.072;2023-01-26T21:48:05;97443.78;;;0.62;71.29
35878;BME280;21982;49.804;24.072;2023-01-26T21:51:02;97282.25;;;-0.45;71.72
35878;BME280;21982;49.804;24.072;2023-01-26T21:53:46;97486.66;;;0.69;71.79
35878;BME280;21982;49.804;24.072;2023-01-26T21:56:12;97474.69;;;0.66;71.97
35878;BME280;21982;49.804;24.072;2023-01-26T21:58:41;97370.38;;;0.03;71.85
35878;BME280;21982;49.804;24.072;2023-01-26T22:01:20;97477.09;;;0.58;71.72
35878;BME280;21982;49.804;24.072;2023-01-26T22:03:46;97371.72;;;-0.25;72.01
35878;BME280;21982;49.804;24.072;2023-01-26T22:06:12;97484.44;;;0.42;71.97
35878;BME280;21982;49.804;24.072;2023-01-26T22:08:37;97439.50;;;0.18;71.80
35878;BME280;21982;49.804;24.072;2023-01-26T22:11:03;97452.75;;;0.26;71.90
35878;BME280;21982;49.804;24.072;2023-01-26T22:13:28;97470.34;;;0.45;72.02
35878;BME280;21982;49.804;24.072;2023-01-26T22:15:53;97358.25;;;-0.19;71.81
35878;BME280;21982;49.804;24.072;2023-01-26T22:18:26;97359.25;;;0.00;71.74
35878;BME280;21982;49.804;24.072;2023-01-26T22:20:53;97412.03;;;0.25;71.71
35878;BME280;21982;49.804;24.072;2023-01-26T22:23:39;97461.91;;;0.63;71.66
35878;BME280;21982;49.804;24.072;2023-01-26T22:26:08;97359.53;;;-0.03;71.45
35878;BME280;21982;49.804;24.072;2023-01-26T22:28:35;96964.22;;;-2.42;71.30
35878;BME280;21982;49.804;24.072;2023-01-26T22:31:02;96990.88;;;-2.40;71.02
35878;BME280;21982;49.804;24.072;2023-01-26T22:33:31;97294.19;;;-0.43;71.19
35878;BME280;21982;49.804;24.072;2023-01-26T22:36:03;97297.91;;;-0.24;71.24
35878;BME280;21982;49.804;24.072;2023-01-26T22:38:31;97398.56;;;0.52;71.36
35878;BME280;21982;49.804;24.072;2023-01-26T22:40:57;97111.00;;;-1.26;70.64
35878;BME280;21982;49.804;24.072;2023-01-26T22:43:23;97362.88;;;0.31;70.97
35878;BME280;21982;49.804;24.072;2023-01-26T22:45:49;97454.25;;;0.83;71.20
35878;BME280;21982;49.804;24.072;2023-01-26T22:48:15;97177.38;;;-1.11;71.34
35878;BME280;21982;49.804;24.072;2023-01-26T22:50:43;97449.75;;;0.85;71.38
35878;BME280;21982;49.804;24.072;2023-01-26T22:53:11;97444.28;;;0.88;71.43
35878;BME280;21982;49.804;24.072;2023-01-26T22:55:41;97219.47;;;-0.63;71.18
35878;BME280;21982;49.804;24.072;2023-01-26T22:58:08;97447.94;;;0.96;70.52
35878;BME280;21982;49.804;24.072;2023-01-26T23:00:34;97370.06;;;0.39;70.52
35878;BME280;21982;49.804;24.072;2023-01-26T23:03:00;97450.91;;;0.92;70.47
35878;BME280;21982;49.804;24.072;2023-01-26T23:05:32;97416.13;;;0.71;nan
35878;BME280;21982;49.804;24.072;2023-01-26T23:07:58;97327.31;;;0.10;70.56
35878;BME280;21982;49.804;24.072;2023-01-26T23:10:24;97311.19;;;0.16;70.64
